KWLD/WLD METAR and TAF weather

Enter ICAO airport designator
Station Type Date Time Source
KWLD METAR 2022/12/10 02:54 UTC NOAA

KWLD 100254Z AUTO 00000KT 10SM OVC060 06/03 A3012 RMK AO2 SLP206 T00610028 56001


Station Type Date Time Source
KWLD Decoded METAR 2022/12/10 02:54 UTC NOAA

STROTHER FIELD, KS, United States (KWLD) 37-10N 97-02W 350M
Dec 09, 2022 - 09:54 PM EST / 2022.12.10 0254 UTC
Wind: Calm:0
Visibility: 10 mile(s):0
Sky conditions: overcast
Temperature: 43.0 F (6.1 C)
Dew Point: 37.0 F (2.8 C)
Relative Humidity: 79%
Pressure (altimeter): 30.12 in. Hg (1019 hPa)
Pressure tendency: 0.00 inches (0.1 hPa) lower than three hours ago
ob: KWLD 100254Z AUTO 00000KT 10SM OVC060 06/03 A3012 RMK AO2 SLP206 T00610028 56001
cycle: 3

Station Type Date Time Source
KWLD TAF UTC NOAA

Error!

Example: see airport list